sensor_id;sensor_type;location;lat;lon;timestamp;P1;durP1;ratioP1;P2;durP2;ratioP2
20731;SDS011;10527;52.124;5.196;2023-05-10T00:00:59;25.55;;;18.27;;
20731;SDS011;10527;52.124;5.196;2023-05-10T00:03:25;24.65;;;17.48;;
20731;SDS011;10527;52.124;5.196;2023-05-10T00:05:52;23.73;;;16.10;;
20731;SDS011;10527;52.124;5.196;2023-05-10T00:08:19;24.20;;;17.30;;
20731;SDS011;10527;52.124;5.196;2023-05-10T00:10:46;24.13;;;17.45;;
20731;SDS011;10527;52.124;5.196;2023-05-10T00:13:13;19.27;;;15.18;;
20731;SDS011;10527;52.124;5.196;2023-05-10T00:15:40;21.63;;;15.55;;
20731;SDS011;10527;52.124;5.196;2023-05-10T00:18:07;22.40;;;16.70;;
20731;SDS011;10527;52.124;5.196;2023-05-10T00:20:37;21.80;;;15.88;;
20731;SDS011;10527;52.124;5.196;2023-05-10T00:23:04;24.42;;;17.40;;
20731;SDS011;10527;52.124;5.196;2023-05-10T00:25:30;25.23;;;18.40;;
20731;SDS011;10527;52.124;5.196;2023-05-10T00:27:57;26.92;;;18.88;;
20731;SDS011;10527;52.124;5.196;2023-05-10T00:30:27;25.40;;;17.40;;
20731;SDS011;10527;52.124;5.196;2023-05-10T00:32:54;26.73;;;20.52;;
20731;SDS011;10527;52.124;5.196;2023-05-10T00:35:21;24.05;;;17.77;;
20731;SDS011;10527;52.124;5.196;2023-05-10T00:37:48;23.77;;;18.27;;
20731;SDS011;10527;52.124;5.196;2023-05-10T00:40:15;26.92;;;18.60;;
20731;SDS011;10527;52.124;5.196;2023-05-10T00:42:42;26.50;;;20.13;;
20731;SDS011;10527;52.124;5.196;2023-05-10T00:45:09;25.55;;;19.23;;
20731;SDS011;10527;52.124;5.196;2023-05-10T00:47:36;23.55;;;17.33;;
20731;SDS011;10527;52.124;5.196;2023-05-10T00:50:03;24.08;;;18.67;;
20731;SDS011;10527;52.124;5.196;2023-05-10T00:52:31;20.95;;;17.08;;
20731;SDS011;10527;52.124;5.196;2023-05-10T00:54:58;27.45;;;19.40;;
20731;SDS011;10527;52.124;5.196;2023-05-10T00:57:26;24.92;;;18.42;;
20731;SDS011;10527;52.124;5.196;2023-05-10T00:59:56;28.60;;;20.05;;
20731;SDS011;10527;52.124;5.196;2023-05-10T01:02:25;29.05;;;21.13;;
20731;SDS011;10527;52.124;5.196;2023-05-10T01:04:52;30.38;;;20.55;;
20731;SDS011;10527;52.124;5.196;2023-05-10T01:07:19;25.75;;;18.98;;
20731;SDS011;10527;52.124;5.196;2023-05-10T01:09:45;30.35;;;19.67;;
20731;SDS011;10527;52.124;5.196;2023-05-10T01:12:13;31.48;;;20.25;;
20731;SDS011;10527;52.124;5.196;2023-05-10T01:14:41;29.60;;;20.25;;
20731;SDS011;10527;52.124;5.196;2023-05-10T01:17:09;28.70;;;19.40;;
20731;SDS011;10527;52.124;5.196;2023-05-10T01:19:40;30.98;;;20.80;;
20731;SDS011;10527;52.124;5.196;2023-05-10T01:24:54;35.38;;;21.70;;
20731;SDS011;10527;52.124;5.196;2023-05-10T01:31:03;31.48;;;20.42;;
20731;SDS011;10527;52.124;5.196;2023-05-10T01:34:09;31.90;;;21.00;;
20731;SDS011;10527;52.124;5.196;2023-05-10T01:36:51;34.63;;;22.08;;
20731;SDS011;10527;52.124;5.196;2023-05-10T01:39:32;31.63;;;21.23;;
20731;SDS011;10527;52.124;5.196;2023-05-10T01:42:40;33.92;;;22.00;;
20731;SDS011;10527;52.124;5.196;2023-05-10T01:48:05;37.08;;;22.15;;
20731;SDS011;10527;52.124;5.196;2023-05-10T01:50:36;31.15;;;20.33;;
20731;SDS011;10527;52.124;5.196;2023-05-10T01:53:08;32.90;;;21.38;;
20731;SDS011;10527;52.124;5.196;2023-05-10T01:55:46;31.65;;;20.75;;
20731;SDS011;10527;52.124;5.196;2023-05-10T01:58:20;35.33;;;21.23;;
20731;SDS011;10527;52.124;5.196;2023-05-10T02:00:53;32.22;;;20.17;;
20731;SDS011;10527;52.124;5.196;2023-05-10T02:03:22;36.88;;;21.88;;
20731;SDS011;10527;52.124;5.196;2023-05-10T02:05:53;37.25;;;22.95;;
20731;SDS011;10527;52.124;5.196;2023-05-10T02:08:23;38.60;;;21.65;;
20731;SDS011;10527;52.124;5.196;2023-05-10T02:10:52;37.63;;;21.92;;
20731;SDS011;10527;52.124;5.196;2023-05-10T02:13:23;39.03;;;22.08;;
20731;SDS011;10527;52.124;5.196;2023-05-10T02:15:53;39.08;;;22.00;;
20731;SDS011;10527;52.124;5.196;2023-05-10T02:18:22;40.13;;;22.23;;
20731;SDS011;10527;52.124;5.196;2023-05-10T02:20:52;44.90;;;24.27;;
20731;SDS011;10527;52.124;5.196;2023-05-10T02:23:22;42.28;;;22.25;;
20731;SDS011;10527;52.124;5.196;2023-05-10T02:25:51;42.83;;;23.17;;
20731;SDS011;10527;52.124;5.196;2023-05-10T02:28:23;44.60;;;23.65;;
20731;SDS011;10527;52.124;5.196;2023-05-10T02:30:52;43.15;;;24.92;;
20731;SDS011;10527;52.124;5.196;2023-05-10T02:33:21;47.80;;;24.42;;
20731;SDS011;10527;52.124;5.196;2023-05-10T02:35:50;46.78;;;24.42;;
20731;SDS011;10527;52.124;5.196;2023-05-10T02:38:19;50.95;;;25.27;;
20731;SDS011;10527;52.124;5.196;2023-05-10T02:40:49;49.20;;;25.30;;
20731;SDS011;10527;52.124;5.196;2023-05-10T02:43:18;52.55;;;25.83;;
20731;SDS011;10527;52.124;5.196;2023-05-10T02:45:49;50.88;;;24.65;;
20731;SDS011;10527;52.124;5.196;2023-05-10T02:48:16;51.65;;;27.40;;
20731;SDS011;10527;52.124;5.196;2023-05-10T02:50:44;53.45;;;27.42;;
20731;SDS011;10527;52.124;5.196;2023-05-10T02:53:15;47.45;;;24.17;;
20731;SDS011;10527;52.124;5.196;2023-05-10T02:55:50;49.58;;;25.00;;
20731;SDS011;10527;52.124;5.196;2023-05-10T02:58:23;51.00;;;27.20;;
20731;SDS011;10527;52.124;5.196;2023-05-10T03:00:49;49.72;;;26.52;;
20731;SDS011;10527;52.124;5.196;2023-05-10T03:03:16;45.08;;;25.13;;
20731;SDS011;10527;52.124;5.196;2023-05-10T03:05:43;48.83;;;29.40;;
20731;SDS011;10527;52.124;5.196;2023-05-10T03:08:10;48.25;;;26.85;;
20731;SDS011;10527;52.124;5.196;2023-05-10T03:10:41;47.17;;;26.77;;
20731;SDS011;10527;52.124;5.196;2023-05-10T03:13:44;50.50;;;26.30;;
20731;SDS011;10527;52.124;5.196;2023-05-10T03:16:42;52.25;;;27.08;;
20731;SDS011;10527;52.124;5.196;2023-05-10T03:19:30;43.42;;;26.35;;
20731;SDS011;10527;52.124;5.196;2023-05-10T03:22:05;46.42;;;26.58;;
20731;SDS011;10527;52.124;5.196;2023-05-10T03:24:39;46.13;;;25.80;;
20731;SDS011;10527;52.124;5.196;2023-05-10T03:27:09;46.80;;;26.33;;
20731;SDS011;10527;52.124;5.196;2023-05-10T03:29:38;43.60;;;25.15;;
20731;SDS011;10527;52.124;5.196;2023-05-10T03:32:06;50.25;;;27.02;;
20731;SDS011;10527;52.124;5.196;2023-05-10T03:34:33;47.08;;;25.92;;
20731;SDS011;10527;52.124;5.196;2023-05-10T03:36:59;51.97;;;26.65;;
20731;SDS011;10527;52.124;5.196;2023-05-10T03:39:26;56.05;;;28.27;;
20731;SDS011;10527;52.124;5.196;2023-05-10T03:41:53;50.15;;;28.02;;
20731;SDS011;10527;52.124;5.196;2023-05-10T03:44:19;52.92;;;28.00;;
20731;SDS011;10527;52.124;5.196;2023-05-10T03:46:46;50.45;;;26.48;;
20731;SDS011;10527;52.124;5.196;2023-05-10T03:49:14;50.00;;;26.20;;
20731;SDS011;10527;52.124;5.196;2023-05-10T03:51:40;52.47;;;25.85;;
20731;SDS011;10527;52.124;5.196;2023-05-10T03:54:07;52.70;;;25.15;;
20731;SDS011;10527;52.124;5.196;2023-05-10T03:56:37;52.35;;;27.13;;
20731;SDS011;10527;52.124;5.196;2023-05-10T03:59:03;50.60;;;26.55;;
20731;SDS011;10527;52.124;5.196;2023-05-10T04:01:33;56.35;;;28.52;;
20731;SDS011;10527;52.124;5.196;2023-05-10T04:04:01;58.30;;;28.33;;
20731;SDS011;10527;52.124;5.196;2023-05-10T04:06:28;50.72;;;27.10;;
20731;SDS011;10527;52.124;5.196;2023-05-10T04:08:54;49.35;;;26.00;;
20731;SDS011;10527;52.124;5.196;2023-05-10T04:11:21;42.22;;;24.63;;
20731;SDS011;10527;52.124;5.196;2023-05-10T04:13:48;43.30;;;24.90;;
20731;SDS011;10527;52.124;5.196;2023-05-10T04:16:15;44.35;;;25.23;;
20731;SDS011;10527;52.124;5.196;2023-05-10T04:18:42;40.67;;;23.13;;
20731;SDS011;10527;52.124;5.196;2023-05-10T04:21:12;40.58;;;23.75;;
20731;SDS011;10527;52.124;5.196;2023-05-10T04:23:41;41.88;;;22.33;;
20731;SDS011;10527;52.124;5.196;2023-05-10T04:26:11;35.83;;;21.42;;
20731;SDS011;10527;52.124;5.196;2023-05-10T04:28:38;41.70;;;22.95;;
20731;SDS011;10527;52.124;5.196;2023-05-10T04:31:05;35.42;;;21.80;;
20731;SDS011;10527;52.124;5.196;2023-05-10T04:33:34;41.08;;;22.40;;
20731;SDS011;10527;52.124;5.196;2023-05-10T04:36:02;41.78;;;24.08;;
20731;SDS011;10527;52.124;5.196;2023-05-10T04:38:31;39.58;;;22.73;;
20731;SDS011;10527;52.124;5.196;2023-05-10T04:41:05;44.55;;;23.55;;
20731;SDS011;10527;52.124;5.196;2023-05-10T04:43:37;42.40;;;23.10;;
20731;SDS011;10527;52.124;5.196;2023-05-10T04:46:05;40.80;;;24.02;;
20731;SDS011;10527;52.124;5.196;2023-05-10T04:48:33;41.60;;;22.92;;
20731;SDS011;10527;52.124;5.196;2023-05-10T04:51:00;38.65;;;22.77;;
20731;SDS011;10527;52.124;5.196;2023-05-10T04:53:27;42.85;;;25.10;;
20731;SDS011;10527;52.124;5.196;2023-05-10T04:55:54;40.60;;;23.75;;
20731;SDS011;10527;52.124;5.196;2023-05-10T04:58:21;37.53;;;23.17;;
20731;SDS011;10527;52.124;5.196;2023-05-10T05:00:47;38.47;;;24.00;;
20731;SDS011;10527;52.124;5.196;2023-05-10T05:03:14;37.55;;;24.13;;
20731;SDS011;10527;52.124;5.196;2023-05-10T05:05:41;43.83;;;25.20;;
20731;SDS011;10527;52.124;5.196;2023-05-10T05:08:09;43.38;;;26.50;;
20731;SDS011;10527;52.124;5.196;2023-05-10T05:10:36;40.55;;;24.58;;
20731;SDS011;10527;52.124;5.196;2023-05-10T05:13:03;45.45;;;26.60;;
20731;SDS011;10527;52.124;5.196;2023-05-10T05:15:30;45.65;;;24.83;;
20731;SDS011;10527;52.124;5.196;2023-05-10T05:17:57;45.42;;;25.73;;
20731;SDS011;10527;52.124;5.196;2023-05-10T05:20:24;42.47;;;23.98;;
20731;SDS011;10527;52.124;5.196;2023-05-10T05:22:50;43.78;;;24.58;;
20731;SDS011;10527;52.124;5.196;2023-05-10T05:25:17;42.47;;;23.60;;
20731;SDS011;10527;52.124;5.196;2023-05-10T05:27:44;42.10;;;24.05;;
20731;SDS011;10527;52.124;5.196;2023-05-10T05:30:11;46.38;;;24.38;;
20731;SDS011;10527;52.124;5.196;2023-05-10T05:32:38;39.30;;;23.33;;
20731;SDS011;10527;52.124;5.196;2023-05-10T05:35:05;37.15;;;23.08;;
20731;SDS011;10527;52.124;5.196;2023-05-10T05:37:33;38.53;;;24.05;;
20731;SDS011;10527;52.124;5.196;2023-05-10T05:40:00;33.13;;;22.58;;
20731;SDS011;10527;52.124;5.196;2023-05-10T05:42:28;36.78;;;22.95;;
20731;SDS011;10527;52.124;5.196;2023-05-10T05:44:54;39.70;;;24.27;;
20731;SDS011;10527;52.124;5.196;2023-05-10T05:47:21;38.70;;;23.67;;
20731;SDS011;10527;52.124;5.196;2023-05-10T05:49:48;38.92;;;21.92;;
20731;SDS011;10527;52.124;5.196;2023-05-10T05:52:15;36.42;;;21.83;;
20731;SDS011;10527;52.124;5.196;2023-05-10T05:54:42;32.63;;;20.42;;
20731;SDS011;10527;52.124;5.196;2023-05-10T05:57:09;35.72;;;20.27;;
20731;SDS011;10527;52.124;5.196;2023-05-10T05:59:36;32.47;;;19.75;;
20731;SDS011;10527;52.124;5.196;2023-05-10T06:02:08;32.33;;;18.50;;
20731;SDS011;10527;52.124;5.196;2023-05-10T06:04:35;31.67;;;17.50;;
20731;SDS011;10527;52.124;5.196;2023-05-10T06:07:08;31.70;;;17.30;;
20731;SDS011;10527;52.124;5.196;2023-05-10T06:09:34;26.95;;;16.10;;
20731;SDS011;10527;52.124;5.196;2023-05-10T06:12:01;24.88;;;15.13;;
20731;SDS011;10527;52.124;5.196;2023-05-10T06:14:28;24.80;;;14.52;;
20731;SDS011;10527;52.124;5.196;2023-05-10T06:16:58;22.48;;;14.32;;
20731;SDS011;10527;52.124;5.196;2023-05-10T06:19:28;19.40;;;13.10;;
20731;SDS011;10527;52.124;5.196;2023-05-10T06:21:55;19.42;;;11.60;;
20731;SDS011;10527;52.124;5.196;2023-05-10T06:24:22;18.25;;;11.70;;
20731;SDS011;10527;52.124;5.196;2023-05-10T06:26:51;16.63;;;10.25;;
20731;SDS011;10527;52.124;5.196;2023-05-10T06:29:18;16.90;;;10.48;;
20731;SDS011;10527;52.124;5.196;2023-05-10T06:31:44;15.77;;;10.63;;
20731;SDS011;10527;52.124;5.196;2023-05-10T06:34:13;17.80;;;10.13;;
20731;SDS011;10527;52.124;5.196;2023-05-10T06:36:40;16.40;;;10.73;;
20731;SDS011;10527;52.124;5.196;2023-05-10T06:39:07;15.35;;;10.30;;
20731;SDS011;10527;52.124;5.196;2023-05-10T06:41:34;17.85;;;10.65;;
20731;SDS011;10527;52.124;5.196;2023-05-10T06:44:02;17.55;;;10.27;;
20731;SDS011;10527;52.124;5.196;2023-05-10T06:46:30;14.18;;;10.52;;
20731;SDS011;10527;52.124;5.196;2023-05-10T06:48:57;16.05;;;10.25;;
20731;SDS011;10527;52.124;5.196;2023-05-10T06:51:23;13.35;;;8.60;;
20731;SDS011;10527;52.124;5.196;2023-05-10T06:53:50;16.33;;;9.80;;
20731;SDS011;10527;52.124;5.196;2023-05-10T06:56:17;15.52;;;9.70;;
20731;SDS011;10527;52.124;5.196;2023-05-10T06:58:45;13.65;;;9.45;;
20731;SDS011;10527;52.124;5.196;2023-05-10T07:01:12;11.57;;;8.30;;
20731;SDS011;10527;52.124;5.196;2023-05-10T07:03:40;13.00;;;8.95;;
20731;SDS011;10527;52.124;5.196;2023-05-10T07:06:07;17.73;;;10.15;;
20731;SDS011;10527;52.124;5.196;2023-05-10T07:08:43;17.40;;;9.23;;
20731;SDS011;10527;52.124;5.196;2023-05-10T07:11:10;12.98;;;8.90;;
20731;SDS011;10527;52.124;5.196;2023-05-10T07:13:37;13.07;;;9.23;;
20731;SDS011;10527;52.124;5.196;2023-05-10T07:16:07;11.57;;;7.97;;
20731;SDS011;10527;52.124;5.196;2023-05-10T07:18:34;14.02;;;9.02;;
20731;SDS011;10527;52.124;5.196;2023-05-10T07:21:01;14.35;;;8.30;;
20731;SDS011;10527;52.124;5.196;2023-05-10T07:23:29;11.55;;;8.38;;
20731;SDS011;10527;52.124;5.196;2023-05-10T07:25:56;13.60;;;8.55;;
20731;SDS011;10527;52.124;5.196;2023-05-10T07:28:23;12.18;;;8.20;;
20731;SDS011;10527;52.124;5.196;2023-05-10T07:30:50;13.82;;;8.90;;
20731;SDS011;10527;52.124;5.196;2023-05-10T07:33:17;11.43;;;7.97;;
20731;SDS011;10527;52.124;5.196;2023-05-10T07:35:44;12.90;;;8.45;;
20731;SDS011;10527;52.124;5.196;2023-05-10T07:38:11;13.70;;;8.75;;
20731;SDS011;10527;52.124;5.196;2023-05-10T07:40:38;10.20;;;7.63;;
20731;SDS011;10527;52.124;5.196;2023-05-10T07:43:06;11.55;;;7.85;;
20731;SDS011;10527;52.124;5.196;2023-05-10T07:45:33;11.77;;;8.05;;
20731;SDS011;10527;52.124;5.196;2023-05-10T07:48:00;9.85;;;7.22;;
20731;SDS011;10527;52.124;5.196;2023-05-10T07:50:27;10.90;;;7.68;;
20731;SDS011;10527;52.124;5.196;2023-05-10T07:52:54;11.35;;;8.18;;
20731;SDS011;10527;52.124;5.196;2023-05-10T07:55:21;10.35;;;7.05;;
20731;SDS011;10527;52.124;5.196;2023-05-10T07:57:48;12.98;;;8.07;;
20731;SDS011;10527;52.124;5.196;2023-05-10T08:00:17;10.02;;;7.25;;
20731;SDS011;10527;52.124;5.196;2023-05-10T08:02:46;11.07;;;6.68;;
20731;SDS011;10527;52.124;5.196;2023-05-10T08:05:14;8.73;;;6.45;;
20731;SDS011;10527;52.124;5.196;2023-05-10T08:07:41;9.57;;;7.03;;
20731;SDS011;10527;52.124;5.196;2023-05-10T08:10:08;11.85;;;7.72;;
20731;SDS011;10527;52.124;5.196;2023-05-10T08:12:37;15.02;;;8.15;;
20731;SDS011;10527;52.124;5.196;2023-05-10T08:15:05;9.73;;;7.10;;
20731;SDS011;10527;52.124;5.196;2023-05-10T08:17:33;9.68;;;7.55;;
20731;SDS011;10527;52.124;5.196;2023-05-10T08:20:00;10.43;;;7.00;;
20731;SDS011;10527;52.124;5.196;2023-05-10T08:22:27;14.88;;;9.07;;
20731;SDS011;10527;52.124;5.196;2023-05-10T08:24:54;14.43;;;8.10;;
20731;SDS011;10527;52.124;5.196;2023-05-10T08:27:20;8.73;;;7.18;;
20731;SDS011;10527;52.124;5.196;2023-05-10T08:29:47;9.95;;;7.18;;
20731;SDS011;10527;52.124;5.196;2023-05-10T08:32:16;10.15;;;7.80;;
20731;SDS011;10527;52.124;5.196;2023-05-10T08:34:43;10.88;;;7.40;;
20731;SDS011;10527;52.124;5.196;2023-05-10T08:37:10;10.18;;;7.53;;
20731;SDS011;10527;52.124;5.196;2023-05-10T08:39:39;11.98;;;8.30;;
20731;SDS011;10527;52.124;5.196;2023-05-10T08:42:06;11.05;;;7.85;;
20731;SDS011;10527;52.124;5.196;2023-05-10T08:44:35;12.13;;;7.80;;
20731;SDS011;10527;52.124;5.196;2023-05-10T08:47:06;15.07;;;9.13;;
20731;SDS011;10527;52.124;5.196;2023-05-10T08:49:38;10.77;;;8.13;;
20731;SDS011;10527;52.124;5.196;2023-05-10T08:52:07;12.25;;;8.45;;
20731;SDS011;10527;52.124;5.196;2023-05-10T08:54:37;11.40;;;7.97;;
20731;SDS011;10527;52.124;5.196;2023-05-10T08:57:04;10.23;;;8.23;;
20731;SDS011;10527;52.124;5.196;2023-05-10T08:59:31;11.07;;;8.05;;
20731;SDS011;10527;52.124;5.196;2023-05-10T09:01:59;10.43;;;8.07;;
20731;SDS011;10527;52.124;5.196;2023-05-10T09:04:28;10.27;;;7.80;;
20731;SDS011;10527;52.124;5.196;2023-05-10T09:06:57;12.27;;;7.65;;
20731;SDS011;10527;52.124;5.196;2023-05-10T09:09:24;13.52;;;9.10;;
20731;SDS011;10527;52.124;5.196;2023-05-10T09:11:53;11.40;;;7.32;;
20731;SDS011;10527;52.124;5.196;2023-05-10T09:14:21;11.45;;;7.55;;
20731;SDS011;10527;52.124;5.196;2023-05-10T09:16:51;11.55;;;7.72;;
20731;SDS011;10527;52.124;5.196;2023-05-10T09:19:20;10.27;;;7.18;;
20731;SDS011;10527;52.124;5.196;2023-05-10T09:21:47;8.43;;;7.20;;
20731;SDS011;10527;52.124;5.196;2023-05-10T09:24:15;9.35;;;6.88;;
20731;SDS011;10527;52.124;5.196;2023-05-10T09:26:48;9.18;;;6.70;;
20731;SDS011;10527;52.124;5.196;2023-05-10T09:29:15;7.35;;;5.88;;
20731;SDS011;10527;52.124;5.196;2023-05-10T09:31:52;8.05;;;5.95;;
20731;SDS011;10527;52.124;5.196;2023-05-10T09:34:31;7.55;;;5.63;;
20731;SDS011;10527;52.124;5.196;2023-05-10T09:37:01;8.13;;;6.38;;
20731;SDS011;10527;52.124;5.196;2023-05-10T09:39:34;7.13;;;5.40;;
20731;SDS011;10527;52.124;5.196;2023-05-10T09:42:04;7.47;;;5.25;;
20731;SDS011;10527;52.124;5.196;2023-05-10T09:44:34;8.45;;;6.13;;
20731;SDS011;10527;52.124;5.196;2023-05-10T09:47:02;9.20;;;4.97;;
20731;SDS011;10527;52.124;5.196;2023-05-10T09:49:30;9.52;;;5.78;;
20731;SDS011;10527;52.124;5.196;2023-05-10T09:51:59;7.20;;;5.28;;
20731;SDS011;10527;52.124;5.196;2023-05-10T09:54:32;6.43;;;4.80;;
20731;SDS011;10527;52.124;5.196;2023-05-10T09:57:00;6.80;;;5.00;;
20731;SDS011;10527;52.124;5.196;2023-05-10T09:59:27;6.78;;;4.95;;
20731;SDS011;10527;52.124;5.196;2023-05-10T10:01:56;6.45;;;4.80;;
20731;SDS011;10527;52.124;5.196;2023-05-10T10:04:26;5.65;;;4.30;;
20731;SDS011;10527;52.124;5.196;2023-05-10T10:07:01;6.47;;;4.05;;
20731;SDS011;10527;52.124;5.196;2023-05-10T10:09:30;6.18;;;4.38;;
20731;SDS011;10527;52.124;5.196;2023-05-10T10:11:59;6.80;;;4.63;;
20731;SDS011;10527;52.124;5.196;2023-05-10T10:14:28;5.50;;;4.10;;
20731;SDS011;10527;52.124;5.196;2023-05-10T10:16:55;13.40;;;5.07;;
20731;SDS011;10527;52.124;5.196;2023-05-10T10:19:33;7.25;;;4.03;;
20731;SDS011;10527;52.124;5.196;2023-05-10T10:22:02;6.03;;;3.78;;
20731;SDS011;10527;52.124;5.196;2023-05-10T10:24:29;4.03;;;3.00;;
20731;SDS011;10527;52.124;5.196;2023-05-10T10:26:57;4.32;;;2.70;;
20731;SDS011;10527;52.124;5.196;2023-05-10T10:30:03;4.05;;;2.70;;
20731;SDS011;10527;52.124;5.196;2023-05-10T10:33:22;5.18;;;3.42;;
20731;SDS011;10527;52.124;5.196;2023-05-10T10:36:02;4.88;;;3.20;;
20731;SDS011;10527;52.124;5.196;2023-05-10T10:39:07;4.55;;;3.40;;
20731;SDS011;10527;52.124;5.196;2023-05-10T10:49:51;4.82;;;3.50;;
20731;SDS011;10527;52.124;5.196;2023-05-10T10:55:00;4.75;;;3.38;;
20731;SDS011;10527;52.124;5.196;2023-05-10T10:57:27;5.07;;;3.40;;
20731;SDS011;10527;52.124;5.196;2023-05-10T11:03:08;6.22;;;3.60;;
20731;SDS011;10527;52.124;5.196;2023-05-10T11:05:48;5.05;;;3.60;;
20731;SDS011;10527;52.124;5.196;2023-05-10T11:11:04;5.03;;;3.03;;
20731;SDS011;10527;52.124;5.196;2023-05-10T11:16:17;4.22;;;3.03;;
20731;SDS011;10527;52.124;5.196;2023-05-10T11:19:04;5.05;;;3.35;;
20731;SDS011;10527;52.124;5.196;2023-05-10T11:21:51;4.82;;;3.15;;
20731;SDS011;10527;52.124;5.196;2023-05-10T11:24:31;4.13;;;3.25;;
20731;SDS011;10527;52.124;5.196;2023-05-10T11:26:59;4.82;;;2.40;;
20731;SDS011;10527;52.124;5.196;2023-05-10T11:29:27;5.80;;;2.63;;
20731;SDS011;10527;52.124;5.196;2023-05-10T11:31:53;3.95;;;2.70;;
20731;SDS011;10527;52.124;5.196;2023-05-10T11:34:26;3.60;;;2.35;;
20731;SDS011;10527;52.124;5.196;2023-05-10T11:36:56;4.30;;;2.20;;
20731;SDS011;10527;52.124;5.196;2023-05-10T11:39:27;4.28;;;2.55;;
20731;SDS011;10527;52.124;5.196;2023-05-10T11:41:56;3.78;;;2.25;;
20731;SDS011;10527;52.124;5.196;2023-05-10T11:44:31;3.70;;;2.10;;
20731;SDS011;10527;52.124;5.196;2023-05-10T11:46:59;4.28;;;2.33;;
20731;SDS011;10527;52.124;5.196;2023-05-10T11:49:27;3.17;;;2.20;;
20731;SDS011;10527;52.124;5.196;2023-05-10T11:52:05;5.35;;;2.92;;
20731;SDS011;10527;52.124;5.196;2023-05-10T11:54:37;5.30;;;2.65;;
20731;SDS011;10527;52.124;5.196;2023-05-10T11:57:04;5.13;;;2.60;;
20731;SDS011;10527;52.124;5.196;2023-05-10T11:59:31;3.72;;;2.47;;
20731;SDS011;10527;52.124;5.196;2023-05-10T12:01:58;4.82;;;3.17;;
20731;SDS011;10527;52.124;5.196;2023-05-10T12:04:25;3.83;;;2.67;;
20731;SDS011;10527;52.124;5.196;2023-05-10T12:06:55;4.35;;;2.28;;
20731;SDS011;10527;52.124;5.196;2023-05-10T12:09:22;2.53;;;1.98;;
20731;SDS011;10527;52.124;5.196;2023-05-10T12:12:08;3.38;;;2.47;;
20731;SDS011;10527;52.124;5.196;2023-05-10T12:14:36;4.35;;;2.45;;
20731;SDS011;10527;52.124;5.196;2023-05-10T12:17:02;4.45;;;2.50;;
20731;SDS011;10527;52.124;5.196;2023-05-10T12:19:36;3.13;;;2.30;;
20731;SDS011;10527;52.124;5.196;2023-05-10T12:22:05;5.70;;;2.50;;
20731;SDS011;10527;52.124;5.196;2023-05-10T12:24:36;3.72;;;2.45;;
20731;SDS011;10527;52.124;5.196;2023-05-10T12:27:04;3.80;;;2.20;;
20731;SDS011;10527;52.124;5.196;2023-05-10T12:29:34;3.65;;;2.85;;
20731;SDS011;10527;52.124;5.196;2023-05-10T12:32:01;3.80;;;2.60;;
20731;SDS011;10527;52.124;5.196;2023-05-10T12:34:32;4.60;;;2.95;;
20731;SDS011;10527;52.124;5.196;2023-05-10T12:37:02;4.20;;;3.20;;
20731;SDS011;10527;52.124;5.196;2023-05-10T12:39:39;4.53;;;2.88;;
20731;SDS011;10527;52.124;5.196;2023-05-10T12:42:14;2.80;;;2.40;;
20731;SDS011;10527;52.124;5.196;2023-05-10T12:44:42;4.28;;;2.83;;
20731;SDS011;10527;52.124;5.196;2023-05-10T12:47:09;11.98;;;5.97;;
20731;SDS011;10527;52.124;5.196;2023-05-10T12:49:36;13.52;;;6.93;;
20731;SDS011;10527;52.124;5.196;2023-05-10T12:52:03;12.63;;;7.82;;
20731;SDS011;10527;52.124;5.196;2023-05-10T12:54:30;14.13;;;7.30;;
20731;SDS011;10527;52.124;5.196;2023-05-10T12:56:57;11.23;;;7.78;;
20731;SDS011;10527;52.124;5.196;2023-05-10T12:59:24;12.57;;;8.45;;
20731;SDS011;10527;52.124;5.196;2023-05-10T13:01:51;11.43;;;7.22;;
20731;SDS011;10527;52.124;5.196;2023-05-10T13:04:17;14.32;;;7.03;;
20731;SDS011;10527;52.124;5.196;2023-05-10T13:06:44;10.88;;;6.70;;
20731;SDS011;10527;52.124;5.196;2023-05-10T13:09:11;9.40;;;6.18;;
20731;SDS011;10527;52.124;5.196;2023-05-10T13:11:38;10.55;;;6.63;;
20731;SDS011;10527;52.124;5.196;2023-05-10T13:14:05;11.65;;;6.35;;
20731;SDS011;10527;52.124;5.196;2023-05-10T13:16:31;11.57;;;7.32;;
20731;SDS011;10527;52.124;5.196;2023-05-10T13:18:58;11.70;;;7.30;;
20731;SDS011;10527;52.124;5.196;2023-05-10T13:21:25;14.15;;;8.50;;
20731;SDS011;10527;52.124;5.196;2023-05-10T13:23:53;14.82;;;7.85;;
20731;SDS011;10527;52.124;5.196;2023-05-10T13:26:20;15.10;;;8.70;;
20731;SDS011;10527;52.124;5.196;2023-05-10T13:28:47;13.48;;;8.73;;
20731;SDS011;10527;52.124;5.196;2023-05-10T13:31:15;15.68;;;8.35;;
20731;SDS011;10527;52.124;5.196;2023-05-10T13:33:44;12.95;;;8.10;;
20731;SDS011;10527;52.124;5.196;2023-05-10T13:36:11;10.57;;;7.55;;
20731;SDS011;10527;52.124;5.196;2023-05-10T13:38:38;12.52;;;7.22;;
20731;SDS011;10527;52.124;5.196;2023-05-10T13:41:05;13.27;;;7.63;;
20731;SDS011;10527;52.124;5.196;2023-05-10T13:43:31;13.13;;;8.05;;
20731;SDS011;10527;52.124;5.196;2023-05-10T13:45:58;10.90;;;7.32;;
20731;SDS011;10527;52.124;5.196;2023-05-10T13:48:26;11.00;;;6.88;;
20731;SDS011;10527;52.124;5.196;2023-05-10T13:50:53;9.98;;;6.35;;
20731;SDS011;10527;52.124;5.196;2023-05-10T13:53:20;10.18;;;6.20;;
20731;SDS011;10527;52.124;5.196;2023-05-10T13:55:48;9.80;;;6.72;;
20731;SDS011;10527;52.124;5.196;2023-05-10T13:58:17;10.88;;;7.13;;
20731;SDS011;10527;52.124;5.196;2023-05-10T14:00:44;10.40;;;6.90;;
20731;SDS011;10527;52.124;5.196;2023-05-10T14:03:11;8.70;;;5.80;;
20731;SDS011;10527;52.124;5.196;2023-05-10T14:05:38;10.18;;;6.70;;
20731;SDS011;10527;52.124;5.196;2023-05-10T14:08:05;12.20;;;6.95;;
20731;SDS011;10527;52.124;5.196;2023-05-10T14:10:32;9.57;;;6.30;;
20731;SDS011;10527;52.124;5.196;2023-05-10T14:12:59;10.70;;;5.68;;
20731;SDS011;10527;52.124;5.196;2023-05-10T14:15:27;10.38;;;5.97;;
20731;SDS011;10527;52.124;5.196;2023-05-10T14:17:53;7.63;;;5.38;;
20731;SDS011;10527;52.124;5.196;2023-05-10T14:20:20;6.88;;;4.82;;
20731;SDS011;10527;52.124;5.196;2023-05-10T14:22:47;7.68;;;5.80;;
20731;SDS011;10527;52.124;5.196;2023-05-10T14:25:14;10.70;;;6.57;;
20731;SDS011;10527;52.124;5.196;2023-05-10T14:27:41;8.05;;;6.05;;
20731;SDS011;10527;52.124;5.196;2023-05-10T14:30:08;8.57;;;4.90;;
20731;SDS011;10527;52.124;5.196;2023-05-10T14:32:35;9.15;;;5.25;;
20731;SDS011;10527;52.124;5.196;2023-05-10T14:35:03;8.35;;;5.88;;
20731;SDS011;10527;52.124;5.196;2023-05-10T14:37:31;9.15;;;5.35;;
20731;SDS011;10527;52.124;5.196;2023-05-10T14:39:58;7.47;;;5.18;;
20731;SDS011;10527;52.124;5.196;2023-05-10T14:42:25;6.88;;;4.97;;
20731;SDS011;10527;52.124;5.196;2023-05-10T14:44:52;8.20;;;4.95;;
20731;SDS011;10527;52.124;5.196;2023-05-10T14:47:18;8.65;;;5.25;;
20731;SDS011;10527;52.124;5.196;2023-05-10T14:49:45;7.90;;;4.95;;
20731;SDS011;10527;52.124;5.196;2023-05-10T14:52:12;8.38;;;5.95;;
20731;SDS011;10527;52.124;5.196;2023-05-10T14:54:40;7.60;;;4.90;;
20731;SDS011;10527;52.124;5.196;2023-05-10T14:57:07;8.70;;;5.65;;
20731;SDS011;10527;52.124;5.196;2023-05-10T14:59:33;8.68;;;5.75;;
20731;SDS011;10527;52.124;5.196;2023-05-10T15:02:01;7.40;;;5.10;;
20731;SDS011;10527;52.124;5.196;2023-05-10T15:04:28;6.97;;;5.38;;
20731;SDS011;10527;52.124;5.196;2023-05-10T15:06:55;7.90;;;4.82;;
20731;SDS011;10527;52.124;5.196;2023-05-10T15:09:25;6.28;;;4.15;;
20731;SDS011;10527;52.124;5.196;2023-05-10T15:11:54;7.15;;;4.20;;
20731;SDS011;10527;52.124;5.196;2023-05-10T15:14:22;8.18;;;4.93;;